createdAt,value
2018-12-09T00:00:22.168Z,0.40
2018-12-09T00:02:49.740Z,0.40
2018-12-09T00:05:17.326Z,0.50
2018-12-09T00:07:44.889Z,0.50
2018-12-09T00:10:12.569Z,0.60
2018-12-09T00:12:40.141Z,0.53
2018-12-09T00:15:07.795Z,0.40
2018-12-09T00:17:35.333Z,0.40
2018-12-09T00:20:03.071Z,0.40
2018-12-09T00:22:30.681Z,0.53
2018-12-09T00:24:58.222Z,0.40
2018-12-09T00:27:25.890Z,0.60
2018-12-09T00:29:53.571Z,0.50
2018-12-09T00:32:21.132Z,0.40
2018-12-09T00:34:48.849Z,0.50
2018-12-09T00:37:16.378Z,0.40
2018-12-09T00:39:43.921Z,0.40
2018-12-09T00:42:11.444Z,0.50
2018-12-09T00:44:39.093Z,0.40
2018-12-09T00:47:06.666Z,0.45
2018-12-09T00:49:34.282Z,0.45
2018-12-09T00:52:01.862Z,0.45
2018-12-09T00:54:29.447Z,0.42
2018-12-09T00:56:57.058Z,0.40
2018-12-09T00:59:24.632Z,0.50
2018-12-09T01:01:52.199Z,0.40
2018-12-09T01:04:19.779Z,0.50
2018-12-09T01:06:47.301Z,0.40
2018-12-09T01:09:14.891Z,0.40
2018-12-09T01:11:42.461Z,0.50
2018-12-09T01:14:10.053Z,0.50
2018-12-09T01:16:37.638Z,0.50
2018-12-09T01:19:05.318Z,0.40
2018-12-09T01:21:32.886Z,0.53
2018-12-09T01:24:00.410Z,0.50
2018-12-09T01:26:28.321Z,0.70
2018-12-09T01:28:55.851Z,0.40
2018-12-09T01:31:23.456Z,0.40
2018-12-09T01:33:50.982Z,0.50
2018-12-09T01:36:18.622Z,0.50
2018-12-09T01:38:46.145Z,0.37
2018-12-09T01:41:13.779Z,0.40
2018-12-09T01:43:41.341Z,0.40
2018-12-09T01:46:08.930Z,0.40
2018-12-09T01:48:36.485Z,0.57
2018-12-09T01:51:04.045Z,0.30
2018-12-09T01:53:43.606Z,0.47
2018-12-09T01:56:11.192Z,1.15
2018-12-09T01:58:38.757Z,0.40
2018-12-09T02:01:06.334Z,0.30
2018-12-09T02:03:33.879Z,0.40
2018-12-09T02:06:01.482Z,0.40
2018-12-09T02:08:29.152Z,0.50
2018-12-09T02:10:57.135Z,0.40
2018-12-09T02:13:24.705Z,0.50
2018-12-09T02:15:52.411Z,0.30
2018-12-09T02:18:19.949Z,0.40
2018-12-09T02:20:47.526Z,0.40
2018-12-09T02:23:15.486Z,0.40
2018-12-09T02:25:43.037Z,0.40
2018-12-09T02:28:10.566Z,0.30
2018-12-09T02:30:38.109Z,0.37
2018-12-09T02:33:05.898Z,0.40
2018-12-09T02:35:37.327Z,0.40
2018-12-09T02:38:04.900Z,0.40
2018-12-09T02:40:32.458Z,0.40
2018-12-09T02:42:59.989Z,0.40
2018-12-09T02:45:27.762Z,0.40
2018-12-09T02:47:55.290Z,0.40
2018-12-09T02:50:22.841Z,0.70
2018-12-09T02:52:50.373Z,0.35
2018-12-09T02:55:17.937Z,0.40
2018-12-09T02:57:45.599Z,0.42
2018-12-09T03:00:14.502Z,0.35
2018-12-09T03:02:42.089Z,0.50
2018-12-09T03:05:09.678Z,0.60
2018-12-09T03:07:37.254Z,0.40
2018-12-09T03:10:05.706Z,0.50
2018-12-09T03:12:33.241Z,0.40
2018-12-09T03:15:00.830Z,0.42
2018-12-09T03:17:28.353Z,0.65
2018-12-09T03:19:55.905Z,0.50
2018-12-09T03:22:23.435Z,0.57
2018-12-09T03:24:51.062Z,0.40
2018-12-09T03:27:18.613Z,0.50
2018-12-09T03:29:46.211Z,0.50
2018-12-09T03:32:13.786Z,0.68
2018-12-09T03:34:41.492Z,0.57
2018-12-09T03:37:09.129Z,0.60
2018-12-09T03:39:36.666Z,0.50
2018-12-09T03:42:04.300Z,0.40
2018-12-09T03:44:31.840Z,0.80
2018-12-09T03:46:59.398Z,0.95
2018-12-09T03:49:26.935Z,0.70
2018-12-09T03:51:54.487Z,1.02
2018-12-09T03:54:22.025Z,0.80
2018-12-09T03:56:49.620Z,0.78
2018-12-09T03:59:17.163Z,1.02
2018-12-09T04:01:44.718Z,1.20
2018-12-09T04:04:12.427Z,1.20
2018-12-09T04:06:40.018Z,1.27
2018-12-09T04:09:07.603Z,1.55
2018-12-09T04:11:35.243Z,1.20
2018-12-09T04:14:02.815Z,1.50
2018-12-09T04:16:30.365Z,1.10
2018-12-09T04:18:57.911Z,1.50
2018-12-09T04:21:25.482Z,1.20
2018-12-09T04:23:53.006Z,1.07
2018-12-09T04:26:20.563Z,1.20
2018-12-09T04:28:48.089Z,1.57
2018-12-09T04:31:15.644Z,0.80
2018-12-09T04:33:43.179Z,0.85
2018-12-09T04:36:10.730Z,1.20
2018-12-09T04:38:38.259Z,0.82
2018-12-09T04:41:05.818Z,1.72
2018-12-09T04:43:33.390Z,0.90
2018-12-09T04:46:01.940Z,0.90
2018-12-09T04:48:29.471Z,0.90
2018-12-09T04:50:57.026Z,0.90
2018-12-09T04:53:24.554Z,0.80
2018-12-09T04:55:52.119Z,0.80
2018-12-09T04:58:19.703Z,0.80
2018-12-09T05:00:54.813Z,0.55
2018-12-09T05:03:22.832Z,0.60
2018-12-09T05:05:50.592Z,0.60
2018-12-09T05:08:18.243Z,0.70
2018-12-09T05:10:45.784Z,0.60
2018-12-09T05:13:13.353Z,0.57
2018-12-09T05:15:40.878Z,0.60
2018-12-09T05:18:08.435Z,0.80
2018-12-09T05:20:36.145Z,0.82
2018-12-09T05:23:03.759Z,0.60
2018-12-09T05:25:31.326Z,0.50
2018-12-09T05:27:58.893Z,0.90
2018-12-09T05:30:26.571Z,1.00
2018-12-09T05:32:54.130Z,0.60
2018-12-09T05:35:22.112Z,0.70
2018-12-09T05:37:49.693Z,0.60
2018-12-09T05:40:17.222Z,0.95
2018-12-09T05:42:44.773Z,0.93
2018-12-09T05:45:12.437Z,0.70
2018-12-09T05:47:40.330Z,0.90
2018-12-09T05:50:07.941Z,0.80
2018-12-09T05:52:35.496Z,0.70
2018-12-09T05:55:03.469Z,0.70
2018-12-09T05:57:31.034Z,1.02
2018-12-09T05:59:58.991Z,0.75
2018-12-09T06:02:38.606Z,0.70
2018-12-09T06:05:06.311Z,0.90
2018-12-09T06:07:33.877Z,2.05
2018-12-09T06:10:01.415Z,0.70
2018-12-09T06:12:29.022Z,0.65
2018-12-09T06:14:56.693Z,0.98
2018-12-09T06:17:24.250Z,0.90
2018-12-09T06:19:51.971Z,0.93
2018-12-09T06:22:19.582Z,0.80
2018-12-09T06:24:47.637Z,0.93
2018-12-09T06:27:15.179Z,0.70
2018-12-09T06:29:42.712Z,1.00
2018-12-09T06:32:10.266Z,0.75
2018-12-09T06:34:37.793Z,0.93
2018-12-09T06:37:05.428Z,2.25
2018-12-09T06:39:33.007Z,1.15
2018-12-09T06:42:00.697Z,0.70
2018-12-09T06:44:28.405Z,1.32
2018-12-09T06:46:55.954Z,0.85
2018-12-09T06:49:23.488Z,0.70
2018-12-09T06:51:51.035Z,0.80
2018-12-09T06:54:18.577Z,0.65
2018-12-09T06:56:46.143Z,0.70
2018-12-09T06:59:13.801Z,0.90
2018-12-09T07:01:41.765Z,0.70
2018-12-09T07:04:09.302Z,1.00
2018-12-09T07:06:36.835Z,0.90
2018-12-09T07:09:05.202Z,0.90
2018-12-09T07:11:32.738Z,0.90
2018-12-09T07:14:00.297Z,0.90
2018-12-09T07:16:28.182Z,1.10
2018-12-09T07:18:55.754Z,1.10
2018-12-09T07:21:23.406Z,1.75
2018-12-09T07:23:50.982Z,1.62
2018-12-09T07:26:18.541Z,2.47
2018-12-09T07:28:46.122Z,1.27
2018-12-09T07:31:13.761Z,1.10
2018-12-09T07:33:41.371Z,1.67
2018-12-09T07:36:08.942Z,1.87
2018-12-09T07:38:36.503Z,2.20
2018-12-09T07:41:04.494Z,1.92
2018-12-09T07:43:32.065Z,1.90
2018-12-09T07:45:59.738Z,2.20
2018-12-09T07:48:27.311Z,1.32
2018-12-09T07:50:54.890Z,1.60
2018-12-09T07:53:22.939Z,1.80
2018-12-09T07:55:50.474Z,1.45
2018-12-09T07:58:18.102Z,1.80
2018-12-09T08:00:45.631Z,1.77
2018-12-09T08:03:13.243Z,1.77
2018-12-09T08:05:40.839Z,1.22
2018-12-09T08:08:08.407Z,1.75
2018-12-09T08:10:35.977Z,1.65
2018-12-09T08:13:03.546Z,1.22
2018-12-09T08:15:31.070Z,1.22
2018-12-09T08:17:58.613Z,1.77
2018-12-09T08:20:26.143Z,1.95
2018-12-09T08:22:53.696Z,2.87
2018-12-09T08:25:21.230Z,1.75
2018-12-09T08:27:48.853Z,1.50
2018-12-09T08:30:16.465Z,1.40
2018-12-09T08:32:44.012Z,1.62
2018-12-09T08:35:11.597Z,1.22
2018-12-09T08:37:39.150Z,1.35
2018-12-09T08:40:06.850Z,1.22
2018-12-09T08:42:34.418Z,1.20
2018-12-09T08:45:01.991Z,1.32
2018-12-09T08:47:29.567Z,0.90
2018-12-09T08:49:57.133Z,1.17
2018-12-09T08:52:24.710Z,1.62
2018-12-09T08:54:52.294Z,1.62
2018-12-09T08:57:19.850Z,1.00
2018-12-09T08:59:47.398Z,0.93
2018-12-09T09:02:14.935Z,1.22
2018-12-09T09:04:42.571Z,1.25
2018-12-09T09:07:10.094Z,1.10
2018-12-09T09:09:37.718Z,1.22
2018-12-09T09:12:05.286Z,1.22
2018-12-09T09:14:32.830Z,1.40
2018-12-09T09:17:00.429Z,1.20
2018-12-09T09:19:28.588Z,0.90
2018-12-09T09:21:56.366Z,0.72
2018-12-09T09:24:24.113Z,0.95
2018-12-09T09:26:51.740Z,1.80
2018-12-09T09:29:19.288Z,1.00
2018-12-09T09:31:46.885Z,1.02
2018-12-09T09:34:14.458Z,0.90
2018-12-09T09:36:41.990Z,1.05
2018-12-09T09:39:09.580Z,0.95
2018-12-09T09:41:37.173Z,0.90
2018-12-09T09:44:04.753Z,1.35
2018-12-09T09:46:32.330Z,0.80
2018-12-09T09:48:59.898Z,0.80
2018-12-09T09:51:27.476Z,0.80
2018-12-09T09:53:55.021Z,0.68
2018-12-09T09:56:22.734Z,0.70
2018-12-09T09:58:50.283Z,1.00
2018-12-09T10:01:17.869Z,0.95
2018-12-09T10:03:45.417Z,1.07
2018-12-09T10:06:13.025Z,0.80
2018-12-09T10:08:40.614Z,0.60
2018-12-09T10:11:08.142Z,0.90
2018-12-09T10:13:35.687Z,0.70
2018-12-09T10:16:03.218Z,1.30
2018-12-09T10:18:30.769Z,0.50
2018-12-09T10:20:58.295Z,0.80
2018-12-09T10:23:25.872Z,0.60
2018-12-09T10:25:53.628Z,0.90
2018-12-09T10:28:22.303Z,0.98
2018-12-09T10:30:49.926Z,0.90
2018-12-09T10:33:17.535Z,0.60
2018-12-09T10:35:45.101Z,0.62
2018-12-09T10:38:12.670Z,0.60
2018-12-09T10:40:40.255Z,0.75
2018-12-09T10:43:07.827Z,0.95
2018-12-09T10:45:35.414Z,0.85
2018-12-09T10:48:02.938Z,0.88
2018-12-09T10:50:30.522Z,0.60
2018-12-09T10:52:58.109Z,0.90
2018-12-09T10:55:25.681Z,1.20
2018-12-09T10:57:53.218Z,1.02
2018-12-09T11:03:19.066Z,0.80
2018-12-09T11:05:46.613Z,0.88
2018-12-09T11:08:14.224Z,0.70
2018-12-09T11:10:41.912Z,0.80
2018-12-09T11:13:09.442Z,0.72
2018-12-09T11:15:36.996Z,0.70
2018-12-09T11:18:04.562Z,0.93
2018-12-09T11:20:32.112Z,1.30
2018-12-09T11:22:59.637Z,0.68
2018-12-09T11:25:27.188Z,0.90
2018-12-09T11:27:54.734Z,0.78
2018-12-09T11:30:22.430Z,0.50
2018-12-09T11:32:50.081Z,0.80
2018-12-09T11:35:17.631Z,0.85
2018-12-09T11:37:45.162Z,0.70
2018-12-09T11:40:12.709Z,1.20
2018-12-09T11:42:40.234Z,0.82
2018-12-09T11:45:08.026Z,0.60
2018-12-09T11:47:35.592Z,0.90
2018-12-09T11:50:04.021Z,0.80
2018-12-09T11:52:31.597Z,1.30
2018-12-09T11:54:59.138Z,1.25
2018-12-09T11:57:26.756Z,1.40
2018-12-09T11:59:54.318Z,1.90
2018-12-09T12:02:21.887Z,1.25
2018-12-09T12:04:49.453Z,0.80
2018-12-09T12:07:16.986Z,1.02
2018-12-09T12:09:44.606Z,1.00
2018-12-09T12:12:12.171Z,1.22
2018-12-09T12:14:39.721Z,0.80
2018-12-09T12:17:07.242Z,0.82
2018-12-09T12:19:34.890Z,1.10
2018-12-09T12:22:02.467Z,1.02
2018-12-09T12:24:30.038Z,1.05
2018-12-09T12:26:57.719Z,0.85
2018-12-09T12:29:25.274Z,0.98
2018-12-09T12:31:52.867Z,0.93
2018-12-09T12:34:20.459Z,1.15
2018-12-09T12:36:48.108Z,1.30
2018-12-09T12:39:15.675Z,2.42
2018-12-09T12:41:43.248Z,1.50
2018-12-09T12:44:10.853Z,1.35
2018-12-09T12:46:38.498Z,1.05
2018-12-09T12:49:06.178Z,1.27
2018-12-09T12:51:33.853Z,1.10
2018-12-09T12:54:01.379Z,1.32
2018-12-09T12:56:28.966Z,1.10
2018-12-09T12:58:56.562Z,1.35
2018-12-09T13:01:24.142Z,1.70
2018-12-09T13:03:51.724Z,0.80
2018-12-09T13:06:19.776Z,1.52
2018-12-09T13:08:47.313Z,1.10
2018-12-09T13:11:14.869Z,1.25
2018-12-09T13:13:42.398Z,1.20
2018-12-09T13:16:09.981Z,1.20
2018-12-09T13:18:37.508Z,1.10
2018-12-09T13:21:05.125Z,1.07
2018-12-09T13:23:32.650Z,1.30
2018-12-09T13:26:00.275Z,1.30
2018-12-09T13:28:27.801Z,1.95
2018-12-09T13:30:55.854Z,1.90
2018-12-09T13:33:23.447Z,1.87
2018-12-09T13:35:51.046Z,2.08
2018-12-09T13:38:18.642Z,2.10
2018-12-09T13:40:46.214Z,1.80
2018-12-09T13:43:13.783Z,1.32
2018-12-09T13:45:41.418Z,1.90
2018-12-09T13:48:09.127Z,1.85
2018-12-09T13:50:36.722Z,1.85
2018-12-09T13:53:04.286Z,1.65
2018-12-09T13:55:31.858Z,2.15
2018-12-09T13:57:59.492Z,1.87
2018-12-09T14:00:27.048Z,2.77
2018-12-09T14:02:54.686Z,2.50
2018-12-09T14:05:22.239Z,2.30
2018-12-09T14:07:50.306Z,2.85
2018-12-09T14:10:17.890Z,3.10
2018-12-09T14:12:45.421Z,4.22
2018-12-09T14:15:12.972Z,3.58
2018-12-09T14:17:40.522Z,3.98
2018-12-09T14:20:08.372Z,4.55
2018-12-09T14:22:35.910Z,6.12
2018-12-09T14:25:03.970Z,5.72
2018-12-09T14:27:31.537Z,4.58
2018-12-09T14:29:59.100Z,5.10
2018-12-09T14:32:26.732Z,7.28
2018-12-09T14:34:54.266Z,9.15
2018-12-09T14:37:21.946Z,9.50
2018-12-09T14:39:49.558Z,6.05
2018-12-09T14:42:17.161Z,4.05
2018-12-09T14:44:44.701Z,4.65
2018-12-09T14:47:12.627Z,3.55
2018-12-09T14:49:40.397Z,3.12
2018-12-09T14:52:08.140Z,3.10
2018-12-09T14:54:35.742Z,2.10
2018-12-09T14:57:03.349Z,1.92
2018-12-09T14:59:30.885Z,1.90
2018-12-09T15:01:58.466Z,1.60
2018-12-09T15:04:26.035Z,1.45
2018-12-09T15:06:53.609Z,1.40
2018-12-09T15:09:21.221Z,1.62
2018-12-09T15:11:48.807Z,1.98
2018-12-09T15:14:17.270Z,2.20
2018-12-09T15:16:45.106Z,1.95
2018-12-09T15:19:12.675Z,1.67
2018-12-09T15:21:40.265Z,3.00
2018-12-09T15:24:07.842Z,1.80
2018-12-09T15:26:35.535Z,2.58
2018-12-09T15:29:03.091Z,2.72
2018-12-09T15:31:30.659Z,2.33
2018-12-09T15:33:58.225Z,2.70
2018-12-09T15:36:25.818Z,2.72
2018-12-09T15:38:53.377Z,1.90
2018-12-09T15:41:20.969Z,3.12
2018-12-09T15:43:48.514Z,1.72
2018-12-09T15:46:16.063Z,1.25
2018-12-09T15:48:43.666Z,1.52
2018-12-09T15:51:11.385Z,1.70
2018-12-09T15:53:38.911Z,1.70
2018-12-09T15:56:06.533Z,1.72
2018-12-09T15:58:34.332Z,2.08
2018-12-09T16:01:01.901Z,2.08
2018-12-09T16:03:29.822Z,1.98
2018-12-09T16:05:57.494Z,2.25
2018-12-09T16:08:25.065Z,2.45
2018-12-09T16:10:52.638Z,2.60
2018-12-09T16:13:20.205Z,2.10
2018-12-09T16:15:47.739Z,2.20
2018-12-09T16:18:15.322Z,3.37
2018-12-09T16:20:42.858Z,3.70
2018-12-09T16:23:10.498Z,1.82
2018-12-09T16:25:38.078Z,1.57
2018-12-09T16:28:05.642Z,1.50
2018-12-09T16:30:33.231Z,1.50
2018-12-09T16:33:00.778Z,2.20
2018-12-09T16:35:28.442Z,2.42
2018-12-09T16:37:56.030Z,1.75
2018-12-09T16:40:23.624Z,1.80
2018-12-09T16:42:51.283Z,1.62
2018-12-09T16:45:18.814Z,1.60
2018-12-09T16:47:46.425Z,1.40
2018-12-09T16:50:13.990Z,2.17
2018-12-09T16:52:41.669Z,1.67
2018-12-09T16:55:09.241Z,1.10
2018-12-09T16:57:36.818Z,1.67
2018-12-09T17:00:05.270Z,1.80
2018-12-09T17:02:32.881Z,1.82
2018-12-09T17:05:00.458Z,2.33
2018-12-09T17:07:28.015Z,4.40
2018-12-09T17:09:55.538Z,1.85
2018-12-09T17:12:23.183Z,1.55
2018-12-09T17:14:50.706Z,1.00
2018-12-09T17:17:18.249Z,1.98
2018-12-09T17:19:45.778Z,1.40
2018-12-09T17:22:13.367Z,1.10
2018-12-09T17:24:40.899Z,1.45
2018-12-09T17:27:08.502Z,1.50
2018-12-09T17:29:36.078Z,1.27
2018-12-09T17:32:03.667Z,1.45
2018-12-09T17:34:31.222Z,2.00
2018-12-09T17:36:58.827Z,1.52
2018-12-09T17:39:26.370Z,1.35
2018-12-09T17:41:53.955Z,1.35
2018-12-09T17:44:21.483Z,1.22
2018-12-09T17:46:49.025Z,1.50
2018-12-09T17:49:16.555Z,1.37
2018-12-09T17:51:44.131Z,1.52
2018-12-09T17:54:11.693Z,1.82
2018-12-09T17:56:39.217Z,1.95
2018-12-09T17:59:06.844Z,2.22
2018-12-09T18:01:34.450Z,1.60
2018-12-09T18:04:02.096Z,2.00
2018-12-09T18:06:29.627Z,1.70
2018-12-09T18:08:57.234Z,1.85
2018-12-09T18:11:24.797Z,1.37
2018-12-09T18:13:52.483Z,1.80
2018-12-09T18:16:20.005Z,1.65
2018-12-09T18:18:47.555Z,1.90
2018-12-09T18:21:15.082Z,1.45
2018-12-09T18:23:42.635Z,2.22
2018-12-09T18:26:10.312Z,1.50
2018-12-09T18:28:38.138Z,1.95
2018-12-09T18:31:05.794Z,2.08
2018-12-09T18:33:33.472Z,2.00
2018-12-09T18:36:01.038Z,1.85
2018-12-09T18:38:28.714Z,1.67
2018-12-09T18:40:56.377Z,1.75
2018-12-09T18:43:23.965Z,2.22
2018-12-09T18:45:51.490Z,1.82
2018-12-09T18:48:19.118Z,1.77
2018-12-09T18:50:46.638Z,2.40
2018-12-09T18:53:14.259Z,1.57
2018-12-09T18:55:41.925Z,1.52
2018-12-09T18:58:09.473Z,1.80
2018-12-09T19:00:36.993Z,1.80
2018-12-09T19:03:04.648Z,2.10
2018-12-09T19:05:32.265Z,2.20
2018-12-09T19:07:59.899Z,1.85
2018-12-09T19:10:27.566Z,2.02
2018-12-09T19:12:55.241Z,2.15
2018-12-09T19:15:22.770Z,2.08
2018-12-09T19:17:50.314Z,1.52
2018-12-09T19:20:17.925Z,1.80
2018-12-09T19:22:45.474Z,2.00
2018-12-09T19:25:13.003Z,2.02
2018-12-09T19:27:40.575Z,1.95
2018-12-09T19:30:08.186Z,2.00
2018-12-09T19:32:35.730Z,2.20
2018-12-09T19:35:03.351Z,2.65
2018-12-09T19:37:30.937Z,2.08
2018-12-09T19:39:58.462Z,2.10
2018-12-09T19:42:25.990Z,2.20
2018-12-09T19:44:53.532Z,2.17
2018-12-09T19:47:21.059Z,2.27
2018-12-09T19:49:48.624Z,3.35
2018-12-09T19:52:16.227Z,3.25
2018-12-09T19:54:43.786Z,3.40
2018-12-09T19:57:11.321Z,2.90
2018-12-09T19:59:38.866Z,3.15
2018-12-09T20:02:06.473Z,2.05
2018-12-09T20:04:34.063Z,3.33
2018-12-09T20:07:01.629Z,3.72
2018-12-09T20:09:29.205Z,2.50
2018-12-09T20:11:56.776Z,3.27
2018-12-09T20:14:24.326Z,2.98
2018-12-09T20:16:51.859Z,2.55
2018-12-09T20:19:19.456Z,3.00
2018-12-09T20:21:46.977Z,2.95
2018-12-09T20:24:14.638Z,2.77
2018-12-09T20:26:42.206Z,3.70
2018-12-09T20:29:09.882Z,4.35
2018-12-09T20:31:37.493Z,3.22
2018-12-09T20:34:05.034Z,3.60
2018-12-09T20:36:32.558Z,3.58
2018-12-09T20:39:00.111Z,4.20
2018-12-09T20:41:27.649Z,3.35
2018-12-09T20:43:55.200Z,3.05
2018-12-09T20:46:22.787Z,2.00
2018-12-09T20:48:50.478Z,2.58
2018-12-09T20:51:18.133Z,1.50
2018-12-09T20:53:45.706Z,1.20
2018-12-09T20:56:13.277Z,2.10
2018-12-09T20:58:40.855Z,2.10
2018-12-09T21:01:08.422Z,2.00
2018-12-09T21:03:35.998Z,2.92
2018-12-09T21:06:03.948Z,2.10
2018-12-09T21:08:31.654Z,2.08
2018-12-09T21:10:59.227Z,1.75
2018-12-09T21:13:26.794Z,2.92
2018-12-09T21:15:54.362Z,2.17
2018-12-09T21:18:23.134Z,3.12
2018-12-09T21:20:50.826Z,2.40
2018-12-09T21:23:18.429Z,2.90
2018-12-09T21:25:46.058Z,3.30
2018-12-09T21:28:13.582Z,2.37
2018-12-09T21:30:41.174Z,3.12
2018-12-09T21:33:08.698Z,3.62
2018-12-09T21:35:36.248Z,2.80
2018-12-09T21:38:03.827Z,3.45
2018-12-09T21:40:31.522Z,3.33
2018-12-09T21:42:59.059Z,3.08
2018-12-09T21:45:26.615Z,2.87
2018-12-09T21:47:54.250Z,3.42
2018-12-09T21:50:21.814Z,2.85
2018-12-09T21:52:49.396Z,2.30
2018-12-09T21:55:16.987Z,2.47
2018-12-09T21:57:44.510Z,2.30
2018-12-09T22:00:12.102Z,2.27
2018-12-09T22:02:39.635Z,3.20
2018-12-09T22:05:07.447Z,2.75
2018-12-09T22:07:34.981Z,2.22
2018-12-09T22:10:02.610Z,2.02
2018-12-09T22:12:30.186Z,2.33
2018-12-09T22:14:57.778Z,2.58
2018-12-09T22:17:25.310Z,1.92
2018-12-09T22:19:52.893Z,2.10
2018-12-09T22:22:20.418Z,2.33
2018-12-09T22:24:48.100Z,2.08
2018-12-09T22:27:15.633Z,2.08
2018-12-09T22:29:43.226Z,2.35
2018-12-09T22:32:10.845Z,3.00
2018-12-09T22:34:38.389Z,2.17
2018-12-09T22:37:06.015Z,2.20
2018-12-09T22:39:33.567Z,2.15
2018-12-09T22:42:01.098Z,2.35
2018-12-09T22:44:28.642Z,2.35
2018-12-09T22:46:56.166Z,3.10
2018-12-09T22:49:23.856Z,1.87
2018-12-09T22:51:51.386Z,2.30
2018-12-09T22:54:19.026Z,2.45
2018-12-09T22:56:46.569Z,1.90
2018-12-09T22:59:14.109Z,2.25
2018-12-09T23:01:43.659Z,1.60
2018-12-09T23:04:11.235Z,1.85
2018-12-09T23:06:38.806Z,1.45
2018-12-09T23:09:06.743Z,1.42
2018-12-09T23:11:34.282Z,1.80
2018-12-09T23:14:01.825Z,1.62
2018-12-09T23:16:29.398Z,1.50
2018-12-09T23:18:56.974Z,1.20
2018-12-09T23:21:24.542Z,1.07
2018-12-09T23:23:52.124Z,1.98
2018-12-09T23:26:19.864Z,1.82
2018-12-09T23:28:47.434Z,1.60
2018-12-09T23:31:15.017Z,1.57
2018-12-09T23:33:42.546Z,2.02
2018-12-09T23:36:10.096Z,1.20
2018-12-09T23:38:37.622Z,1.22
2018-12-09T23:41:05.217Z,2.02
2018-12-09T23:43:32.742Z,2.05
2018-12-09T23:46:00.286Z,1.82
2018-12-09T23:48:27.819Z,2.22
2018-12-09T23:50:55.362Z,2.00
2018-12-09T23:53:22.983Z,2.33
2018-12-09T23:55:50.527Z,2.58
2018-12-09T23:58:18.058Z,1.90
